Terminal Aerodrome Forecast
Issued by NWS

Home | Current Version | Previous Version | Graphics & Text | Print | Product List | Glossary On
Versions: 1 2 3 4 5 6 7 8 9 10 11 12 13 14 15 16 17 18 19 20 21
000
FTUS43 KIWX 241437 AAB
TAFSBN
TAF AMD
KSBN 241437Z 2415/2512 22009KT P6SM SCT060 SCT120
     FM241800 20012KT P6SM VCTS BKN050CB
      TEMPO 2420/2422 4SM -TSRA BKN040CB
     FM250000 23010KT P6SM OVC025
     FM251000 26014G20KT 5SM -SHSN OVC015=

USA.gov is the U.S. government's official web portal to all federal, state and local government web resources and services.